Time;durP1;ratioP1;P1;durP2;ratioP2;P2;SDS_P1;SDS_P2;PMS_P1;PMS_P2;Temp;Humidity;BMP_temperature;BMP_pressure;BME280_temperature;BME280_humidity;BME280_pressure;Samples;Min_cycle;Max_cycle;Signal;HPM_P1;HPM_P2
2021/05/17 00:00:15;;;;;;;5.25;3.35;;;12.10;99.90;;;;;;5096702;28;20379;-39
2021/05/17 00:02:42;;;;;;;5.30;3.67;;;12.10;99.90;;;;;;5108051;28;20122;-39
2021/05/17 00:05:09;;;;;;;3.92;3.10;;;12.00;99.90;;;;;;5095877;28;20032;-38
2021/05/17 00:07:36;;;;;;;4.18;3.20;;;12.10;99.90;;;;;;5107959;28;20054;-39
2021/05/17 00:10:04;;;;;;;2.88;2.67;;;12.00;99.90;;;;;;5094767;28;20055;-40
2021/05/17 00:12:29;;;;;;;3.28;2.80;;;12.00;99.90;;;;;;5108535;28;20019;-39
2021/05/17 00:14:55;;;;;;;2.80;2.60;;;12.00;99.90;;;;;;5097241;28;20538;-40
2021/05/17 00:17:21;;;;;;;3.15;2.63;;;12.00;99.90;;;;;;5106611;28;20024;-40
2021/05/17 00:19:47;;;;;;;2.85;2.55;;;12.00;99.90;;;;;;5098148;28;20020;-39
2021/05/17 00:22:13;;;;;;;2.97;2.47;;;12.00;99.90;;;;;;5103437;28;20036;-37
2021/05/17 00:24:39;;;;;;;2.45;2.25;;;12.00;99.90;;;;;;5102176;28;20015;-40
2021/05/17 00:27:05;;;;;;;3.20;2.53;;;11.90;99.90;;;;;;5100524;28;20164;-38
2021/05/17 00:29:31;;;;;;;3.00;2.50;;;11.90;99.90;;;;;;5104793;28;20135;-40
2021/05/17 00:31:56;;;;;;;3.28;2.70;;;11.90;99.90;;;;;;5097536;28;20210;-37
2021/05/17 00:34:22;;;;;;;2.83;2.55;;;11.80;99.90;;;;;;5106459;28;20043;-35
2021/05/17 00:36:48;;;;;;;3.67;2.42;;;11.80;99.90;;;;;;5095599;28;20030;-36
2021/05/17 00:39:14;;;;;;;3.15;2.63;;;11.90;99.90;;;;;;5106755;28;20111;-37
2021/05/17 00:41:41;;;;;;;3.10;2.80;;;11.80;99.90;;;;;;5096509;28;20463;-38
2021/05/17 00:44:08;;;;;;;2.80;2.60;;;11.80;99.90;;;;;;5107370;28;20545;-39
2021/05/17 00:46:34;;;;;;;7.45;5.90;;;11.70;99.90;;;;;;5094455;28;20042;-39
2021/05/17 00:49:01;;;;;;;5.45;3.72;;;11.60;99.90;;;;;;5107832;28;20024;-39
2021/05/17 00:51:27;;;;;;;4.70;3.47;;;11.60;99.90;;;;;;5099314;28;20038;-39
2021/05/17 00:53:53;;;;;;;3.17;2.75;;;11.60;99.90;;;;;;5107213;28;20023;-39
2021/05/17 00:56:22;;;;;;;3.25;2.50;;;11.60;99.90;;;;;;5096762;28;20478;-38
2021/05/17 00:58:48;;;;;;;3.88;2.70;;;11.70;99.90;;;;;;5104588;28;20107;-36
2021/05/17 01:01:16;;;;;;;3.50;2.60;;;11.70;99.90;;;;;;5099082;28;20363;-38
2021/05/17 01:03:42;;;;;;;2.80;2.53;;;11.70;99.90;;;;;;5103080;28;20023;-38
2021/05/17 01:06:08;;;;;;;3.55;2.92;;;11.70;99.90;;;;;;5100516;28;20434;-39
2021/05/17 01:08:43;;;;;;;4.90;2.97;;;11.70;99.90;;;;;;5100179;28;20019;-38
2021/05/17 01:11:11;;;;;;;3.08;2.78;;;11.80;99.90;;;;;;5102528;28;20112;-39
2021/05/17 01:13:39;;;;;;;3.20;2.90;;;11.80;99.90;;;;;;5099154;28;20039;-39
2021/05/17 01:16:06;;;;;;;3.60;2.70;;;11.70;99.90;;;;;;5103728;28;20493;-38
2021/05/17 01:18:33;;;;;;;2.80;2.60;;;11.70;99.90;;;;;;5097026;28;20388;-38
2021/05/17 01:20:59;;;;;;;2.97;2.67;;;11.80;99.90;;;;;;5104156;28;20435;-38
2021/05/17 01:23:43;;;;;;;3.05;2.75;;;11.70;99.90;;;;;;5095404;28;20123;-38
2021/05/17 01:26:09;;;;;;;3.25;3.00;;;11.80;99.90;;;;;;5105449;28;20032;-38
2021/05/17 01:28:35;;;;;;;3.17;2.85;;;11.70;99.90;;;;;;5094884;28;20092;-39
2021/05/17 01:31:08;;;;;;;3.60;2.80;;;11.80;99.90;;;;;;5104544;28;20094;-39
2021/05/17 01:33:37;;;;;;;3.95;2.70;;;11.80;99.90;;;;;;5094519;28;20023;-34
2021/05/17 01:36:04;;;;;;;4.47;3.15;;;11.80;99.90;;;;;;5106351;28;20056;-38
2021/05/17 01:38:30;;;;;;;3.03;2.47;;;11.80;99.90;;;;;;5094018;28;20340;-39
2021/05/17 01:40:57;;;;;;;2.95;2.65;;;11.80;99.90;;;;;;5106493;28;20049;-40
2021/05/17 01:43:23;;;;;;;2.40;2.13;;;11.80;99.90;;;;;;5093666;28;20023;-38
2021/05/17 01:45:50;;;;;;;3.08;2.78;;;11.70;99.90;;;;;;5105478;28;20019;-38
2021/05/17 01:48:23;;;;;;;3.30;2.50;;;11.70;99.90;;;;;;5093558;28;20016;-36
2021/05/17 01:50:49;;;;;;;4.03;2.60;;;11.70;99.90;;;;;;5085688;28;20100;-38
2021/05/17 01:53:17;;;;;;;3.05;2.38;;;11.70;99.90;;;;;;5101538;28;20028;-38
2021/05/17 01:55:43;;;;;;;2.95;2.10;;;11.70;99.90;;;;;;5086628;28;20103;-38
2021/05/17 01:58:22;;;;;;;2.97;2.10;;;11.70;99.90;;;;;;5094380;28;20032;-38
2021/05/17 02:00:49;;;;;;;2.33;2.10;;;11.70;99.90;;;;;;5087531;28;20031;-39
2021/05/17 02:03:17;;;;;;;4.90;1.98;;;11.70;99.90;;;;;;5093176;28;20033;-37
2021/05/17 02:05:46;;;;;;;2.35;2.00;;;11.70;99.90;;;;;;5090128;28;20231;-36
2021/05/17 02:08:15;;;;;;;2.88;2.00;;;11.80;99.90;;;;;;5091840;28;20035;-41
2021/05/17 02:10:44;;;;;;;3.58;1.80;;;11.80;99.90;;;;;;5091235;28;20087;-38
2021/05/17 02:13:16;;;;;;;3.35;2.10;;;11.80;99.90;;;;;;5090519;28;20042;-40
2021/05/17 02:15:44;;;;;;;1.98;1.67;;;11.90;99.90;;;;;;5092276;28;20343;-39
2021/05/17 02:18:10;;;;;;;2.17;1.95;;;11.90;99.90;;;;;;5088678;28;20165;-39
2021/05/17 02:20:38;;;;;;;4.22;1.90;;;11.90;99.90;;;;;;5095280;28;20068;-40
2021/05/17 02:23:05;;;;;;;3.03;2.00;;;11.90;99.90;;;;;;5086136;28;20024;-40
2021/05/17 02:25:31;;;;;;;3.83;1.88;;;11.90;99.90;;;;;;5096604;28;20032;-36
2021/05/17 02:27:57;;;;;;;3.08;1.92;;;11.90;99.90;;;;;;5086964;28;20028;-39
2021/05/17 02:30:24;;;;;;;4.97;2.47;;;11.90;99.90;;;;;;5096622;28;20094;-39
2021/05/17 02:32:54;;;;;;;3.85;2.10;;;11.90;99.90;;;;;;5084827;28;20429;-39
2021/05/17 02:35:22;;;;;;;3.38;2.08;;;11.90;99.90;;;;;;5100598;28;20477;-39
2021/05/17 02:37:49;;;;;;;2.95;2.17;;;11.90;99.90;;;;;;5084827;28;20028;-39
2021/05/17 02:40:16;;;;;;;3.80;2.30;;;11.90;99.90;;;;;;5097805;28;20350;-39
2021/05/17 02:42:45;;;;;;;2.47;2.28;;;12.00;99.90;;;;;;5086621;28;20483;-35
2021/05/17 02:45:11;;;;;;;4.35;2.63;;;12.00;99.90;;;;;;5101665;28;20042;-39
2021/05/17 02:47:38;;;;;;;3.40;2.97;;;11.90;99.90;;;;;;5089699;28;20024;-38
2021/05/17 02:50:05;;;;;;;3.33;2.67;;;11.90;99.90;;;;;;5093632;28;20020;-38
2021/05/17 02:52:32;;;;;;;4.18;2.55;;;11.80;99.90;;;;;;5093795;28;20016;-39
2021/05/17 02:55:05;;;;;;;4.80;2.70;;;11.70;99.90;;;;;;5097067;28;20016;-39
2021/05/17 02:57:45;;;;;;;4.35;2.50;;;11.70;99.90;;;;;;5092306;28;20024;-39
2021/05/17 03:00:20;;;;;;;3.92;2.72;;;11.70;99.90;;;;;;5097620;28;20028;-39
2021/05/17 03:03:02;;;;;;;3.88;2.40;;;11.70;99.90;;;;;;5091911;28;20051;-38
2021/05/17 03:05:33;;;;;;;3.30;3.00;;;11.60;99.90;;;;;;5097641;28;20487;-38
2021/05/17 03:08:03;;;;;;;3.83;2.78;;;11.60;99.90;;;;;;5091966;28;20051;-38
2021/05/17 03:10:30;;;;;;;5.20;3.40;;;11.60;99.90;;;;;;5095683;28;20048;-38
2021/05/17 03:13:03;;;;;;;3.92;3.10;;;11.50;99.90;;;;;;5093118;28;20020;-37
2021/05/17 03:15:30;;;;;;;3.83;3.00;;;11.60;99.90;;;;;;5095614;28;20435;-34
2021/05/17 03:18:02;;;;;;;5.55;3.30;;;11.60;99.90;;;;;;5094751;28;20080;-37
2021/05/17 03:20:28;;;;;;;4.47;2.90;;;11.60;99.90;;;;;;5093001;28;20025;-38
2021/05/17 03:22:56;;;;;;;3.83;2.95;;;11.60;99.90;;;;;;5096355;28;20112;-35
2021/05/17 03:25:33;;;;;;;5.55;3.05;;;11.60;99.90;;;;;;5091656;28;20047;-38
2021/05/17 03:27:59;;;;;;;3.55;3.20;;;11.70;99.90;;;;;;5096974;28;20027;-38
2021/05/17 03:30:25;;;;;;;3.33;2.70;;;11.70;99.90;;;;;;5090467;28;20199;-38
2021/05/17 03:32:51;;;;;;;4.80;3.67;;;11.70;99.90;;;;;;5098954;28;20203;-36
2021/05/17 03:35:17;;;;;;;5.68;3.55;;;11.70;99.90;;;;;;5089833;28;20491;-36
2021/05/17 03:37:43;;;;;;;3.95;3.45;;;11.80;99.90;;;;;;5099681;28;20027;-38
2021/05/17 03:40:10;;;;;;;2.97;2.63;;;11.70;99.90;;;;;;5088595;28;20031;-39
2021/05/17 03:42:37;;;;;;;3.65;2.95;;;11.80;99.90;;;;;;5100523;28;20031;-39
2021/05/17 03:45:07;;;;;;;4.57;3.50;;;11.80;99.90;;;;;;5088555;28;20226;-37
2021/05/17 03:47:33;;;;;;;5.15;3.17;;;11.80;99.90;;;;;;5100537;28;20141;-38
2021/05/17 03:49:59;;;;;;;3.53;2.70;;;11.80;99.90;;;;;;5088571;28;20043;-38
2021/05/17 03:52:24;;;;;;;5.03;3.35;;;11.70;99.90;;;;;;5101427;28;20031;-38
2021/05/17 03:54:50;;;;;;;4.18;3.10;;;11.80;99.90;;;;;;5087934;28;20031;-39
2021/05/17 03:57:15;;;;;;;5.32;3.28;;;11.70;99.90;;;;;;5099362;28;20029;-39
2021/05/17 03:59:44;;;;;;;4.72;3.60;;;11.70;99.90;;;;;;5090656;28;20028;-36
2021/05/17 04:02:14;;;;;;;5.22;3.60;;;11.70;99.90;;;;;;5096347;28;20047;-38
2021/05/17 04:04:47;;;;;;;5.38;3.70;;;11.70;99.90;;;;;;5092626;28;20024;-38
2021/05/17 04:14:57;;;;;;;6.00;3.83;;;11.80;99.90;;;;;;5092863;28;20452;-39
2021/05/17 04:17:23;;;;;;;6.45;3.00;;;11.80;99.90;;;;;;5093568;28;20073;-38
2021/05/17 04:19:48;;;;;;;6.38;3.92;;;11.80;99.90;;;;;;5095154;28;20020;-39
2021/05/17 04:22:14;;;;;;;6.60;3.17;;;11.80;99.90;;;;;;5090008;28;20036;-39
2021/05/17 04:24:39;;;;;;;5.43;3.13;;;11.80;99.90;;;;;;5098223;28;20042;-36
2021/05/17 04:27:05;;;;;;;4.00;3.10;;;11.80;99.90;;;;;;5089328;28;20066;-39
2021/05/17 04:29:31;;;;;;;4.45;2.85;;;11.90;99.90;;;;;;5098405;28;20451;-39
2021/05/17 04:31:56;;;;;;;4.22;3.03;;;11.90;99.90;;;;;;5088699;28;20078;-38
2021/05/17 04:34:25;;;;;;;6.20;4.10;;;11.90;99.90;;;;;;5099908;28;20451;-39
2021/05/17 04:36:50;;;;;;;7.38;4.30;;;11.90;99.90;;;;;;5087295;28;20141;-39
2021/05/17 04:39:16;;;;;;;7.00;4.25;;;12.00;99.90;;;;;;5100775;28;20118;-39
2021/05/17 04:41:41;;;;;;;4.80;3.60;;;12.00;99.90;;;;;;5087099;28;20079;-38
2021/05/17 04:44:07;;;;;;;4.20;3.13;;;12.00;99.90;;;;;;5099848;28;20483;-39
2021/05/17 04:46:33;;;;;;;5.90;3.83;;;12.00;99.90;;;;;;5087441;28;20036;-39
2021/05/17 04:48:58;;;;;;;4.32;3.58;;;12.10;99.90;;;;;;5096957;28;20841;-41
2021/05/17 04:51:24;;;;;;;5.13;3.78;;;12.00;99.90;;;;;;5093236;28;20034;-38
2021/05/17 04:53:51;;;;;;;4.90;3.90;;;12.10;99.90;;;;;;5100014;28;20052;-38
2021/05/17 04:56:18;;;;;;;4.65;2.90;;;12.00;99.90;;;;;;5102935;28;20023;-39
2021/05/17 04:58:50;;;;;;;5.10;3.58;;;12.00;99.90;;;;;;5101679;28;20598;-38
2021/05/17 05:01:16;;;;;;;4.35;3.20;;;12.00;99.90;;;;;;5100773;28;20047;-39
2021/05/17 05:03:41;;;;;;;3.47;3.03;;;12.10;99.90;;;;;;5104753;28;20011;-39
2021/05/17 05:06:07;;;;;;;4.43;3.30;;;12.00;99.90;;;;;;5097002;28;20019;-39
2021/05/17 05:08:32;;;;;;;5.43;3.05;;;12.00;99.90;;;;;;5106038;28;20406;-38
2021/05/17 05:11:00;;;;;;;4.88;2.80;;;12.00;99.90;;;;;;5095922;28;20544;-39
2021/05/17 05:13:26;;;;;;;5.15;3.58;;;12.00;99.90;;;;;;5104936;28;20511;-39
2021/05/17 05:15:52;;;;;;;7.32;2.95;;;12.00;99.90;;;;;;5096015;28;20110;-38
2021/05/17 05:18:19;;;;;;;4.95;3.20;;;12.00;99.90;;;;;;5107349;28;20422;-36
2021/05/17 05:20:45;;;;;;;5.72;3.55;;;12.10;99.90;;;;;;5093848;28;20080;-37
2021/05/17 05:23:18;;;;;;;5.15;3.92;;;12.00;99.90;;;;;;5107653;28;20036;-40
2021/05/17 05:28:49;;;;;;;4.72;3.22;;;12.10;99.90;;;;;;5108348;28;20039;-35
2021/05/17 05:31:54;;;;;;;4.60;3.33;;;12.10;99.90;;;;;;5103001;28;20024;-36
2021/05/17 05:34:19;;;;;;;3.92;2.70;;;12.10;99.90;;;;;;5086609;28;20067;-41
2021/05/17 05:36:44;;;;;;;3.10;2.80;;;12.20;99.90;;;;;;5095159;28;20028;-38
2021/05/17 05:39:10;;;;;;;3.67;2.65;;;12.20;99.90;;;;;;5106464;28;20064;-40
2021/05/17 05:41:35;;;;;;;4.88;3.20;;;12.20;99.90;;;;;;5103549;28;20055;-41
2021/05/17 05:44:01;;;;;;;2.58;1.95;;;12.10;99.90;;;;;;5106024;28;20023;-40
2021/05/17 05:46:27;;;;;;;4.43;2.50;;;12.00;99.90;;;;;;5099996;28;20118;-39
2021/05/17 05:48:54;;;;;;;2.85;2.28;;;11.90;99.90;;;;;;5086584;28;20775;-39
2021/05/17 05:51:22;;;;;;;3.45;2.28;;;11.90;99.90;;;;;;5090230;28;20024;-39
2021/05/17 05:53:49;;;;;;;5.55;3.28;;;11.90;99.90;;;;;;5106027;28;20061;-38
2021/05/17 05:56:15;;;;;;;8.07;4.10;;;11.80;99.90;;;;;;5101989;28;20544;-42
2021/05/17 05:58:45;;;;;;;5.22;3.33;;;11.80;99.90;;;;;;5104359;28;20035;-38
2021/05/17 06:01:15;;;;;;;4.78;3.13;;;11.70;99.90;;;;;;5094638;28;20172;-39
2021/05/17 06:03:40;;;;;;;4.07;2.90;;;11.70;99.90;;;;;;5089500;28;20714;-39
2021/05/17 06:06:09;;;;;;;4.47;2.72;;;11.70;99.90;;;;;;5089744;28;20020;-40
2021/05/17 06:08:40;;;;;;;4.63;2.83;;;11.80;99.90;;;;;;5091492;28;20135;-38
2021/05/17 06:11:07;;;;;;;5.70;3.17;;;11.80;99.90;;;;;;5090370;28;20117;-38
2021/05/17 06:13:34;;;;;;;4.55;2.95;;;11.80;99.90;;;;;;5104001;28;20027;-38
2021/05/17 06:16:00;;;;;;;3.35;2.50;;;11.90;99.90;;;;;;5104443;28;20033;-40
2021/05/17 06:18:28;;;;;;;4.78;3.40;;;11.90;99.90;;;;;;5103881;28;20031;-38
2021/05/17 06:20:54;;;;;;;4.88;3.10;;;12.00;99.90;;;;;;5104623;28;20040;-38
2021/05/17 06:23:21;;;;;;;4.45;2.78;;;12.00;99.90;;;;;;5094693;28;20023;-38
2021/05/17 06:25:49;;;;;;;4.35;3.10;;;12.10;99.90;;;;;;5105012;28;20031;-37
2021/05/17 06:28:19;;;;;;;5.57;3.42;;;12.10;99.90;;;;;;5103201;28;20038;-38
2021/05/17 06:30:48;;;;;;;4.40;2.95;;;12.20;99.90;;;;;;5105727;28;20019;-38
2021/05/17 06:33:14;;;;;;;4.78;3.03;;;12.20;99.90;;;;;;5103627;28;20036;-39
2021/05/17 06:35:48;;;;;;;4.18;2.97;;;12.20;99.90;;;;;;5105788;28;20050;-37
2021/05/17 06:38:14;;;;;;;4.78;2.92;;;12.20;99.90;;;;;;5092524;28;20028;-38
2021/05/17 06:40:40;;;;;;;4.70;3.35;;;12.20;99.90;;;;;;5106051;28;20097;-37
2021/05/17 06:43:05;;;;;;;4.35;3.05;;;12.20;99.90;;;;;;5102442;28;20444;-39
2021/05/17 06:45:32;;;;;;;7.32;4.50;;;12.20;99.90;;;;;;5085979;28;20109;-37
2021/05/17 06:47:58;;;;;;;5.55;3.53;;;12.30;99.90;;;;;;5095827;28;20015;-38
2021/05/17 06:50:24;;;;;;;4.63;3.20;;;12.40;99.90;;;;;;5099519;28;20031;-41
2021/05/17 06:52:51;;;;;;;4.40;2.83;;;12.50;99.90;;;;;;5098987;28;20020;-40
2021/05/17 06:55:20;;;;;;;5.03;3.22;;;12.60;99.90;;;;;;5101514;28;20024;-39
2021/05/17 07:00:30;;;;;;;4.03;2.58;;;12.80;99.90;;;;;;5100200;28;20031;-39
2021/05/17 07:03:08;;;;;;;5.13;3.20;;;12.90;99.90;;;;;;5101505;28;20055;-39
2021/05/17 07:05:38;;;;;;;3.92;2.97;;;13.00;99.90;;;;;;5105667;28;20072;-36
2021/05/17 07:13:23;;;;;;;6.20;3.00;;;13.10;99.90;;;;;;5100506;28;20038;-38
2021/05/17 07:15:49;;;;;;;5.68;2.83;;;13.10;99.90;;;;;;5099022;28;20543;-39
2021/05/17 07:18:15;;;;;;;7.88;3.60;;;13.20;99.90;;;;;;5102576;28;20028;-38
2021/05/17 07:25:55;;;;;;;4.55;3.25;;;13.20;99.90;;;;;;5105292;28;20100;-39
2021/05/17 07:28:21;;;;;;;6.00;3.45;;;13.30;99.90;;;;;;5105912;28;20068;-40
2021/05/17 07:30:47;;;;;;;5.80;3.05;;;13.40;99.90;;;;;;5098425;28;20019;-40
2021/05/17 07:33:14;;;;;;;5.03;2.75;;;13.50;99.90;;;;;;5091244;28;20105;-39
2021/05/17 07:35:40;;;;;;;5.80;2.70;;;13.50;99.90;;;;;;5098632;28;20039;-40
2021/05/17 07:38:08;;;;;;;7.70;2.80;;;13.60;99.90;;;;;;5109444;28;20051;-39
2021/05/17 07:40:34;;;;;;;4.30;2.85;;;13.60;99.90;;;;;;5096932;28;20020;-40
2021/05/17 07:43:00;;;;;;;5.10;2.30;;;13.60;99.90;;;;;;5109692;28;20427;-39
2021/05/17 07:45:26;;;;;;;3.85;2.08;;;13.60;99.90;;;;;;5096858;28;20036;-40
2021/05/17 07:47:52;;;;;;;4.88;3.00;;;13.50;99.90;;;;;;5108521;28;20462;-39
2021/05/17 07:50:18;;;;;;;5.75;3.20;;;13.50;99.90;;;;;;5104188;28;20080;-40
2021/05/17 07:52:46;;;;;;;6.22;2.97;;;13.50;99.90;;;;;;5100146;28;20024;-40
2021/05/17 07:55:13;;;;;;;4.15;2.90;;;13.50;99.90;;;;;;5104493;28;20070;-39
2021/05/17 07:57:39;;;;;;;4.93;2.80;;;13.50;99.90;;;;;;5091870;28;20388;-39
2021/05/17 08:00:07;;;;;;;5.07;2.90;;;13.50;99.90;;;;;;5100698;28;20581;-41
2021/05/17 08:02:33;;;;;;;6.70;2.95;;;13.60;99.90;;;;;;5092652;28;20325;-38
2021/05/17 08:04:58;;;;;;;6.20;3.10;;;13.60;99.90;;;;;;5093792;28;20022;-39
2021/05/17 08:07:24;;;;;;;3.85;2.53;;;13.70;99.90;;;;;;5107003;28;20032;-39
2021/05/17 08:09:51;;;;;;;3.88;2.53;;;13.80;99.90;;;;;;5103973;28;20097;-39
2021/05/17 08:12:23;;;;;;;7.10;2.97;;;13.80;99.90;;;;;;5098931;28;20066;-40
2021/05/17 08:14:48;;;;;;;2.75;2.20;;;13.90;99.90;;;;;;5088547;28;20107;-40
2021/05/17 08:17:14;;;;;;;4.03;2.70;;;14.00;99.90;;;;;;5100090;28;20115;-39
2021/05/17 08:19:39;;;;;;;3.70;2.25;;;14.10;99.90;;;;;;5089840;28;20023;-39
2021/05/17 08:22:05;;;;;;;3.70;2.42;;;14.20;99.90;;;;;;5099571;28;20429;-38
2021/05/17 08:24:31;;;;;;;4.43;2.60;;;14.20;99.70;;;;;;5104651;28;20493;-40
2021/05/17 08:26:57;;;;;;;8.38;2.90;;;14.30;99.90;;;;;;5095567;28;20149;-37
2021/05/17 08:29:23;;;;;;;4.72;2.25;;;14.40;99.90;;;;;;5108979;28;20020;-40
2021/05/17 08:31:50;;;;;;;3.58;2.40;;;14.60;99.90;;;;;;5095021;28;20056;-40
2021/05/17 08:34:17;;;;;;;4.95;2.20;;;14.80;99.80;;;;;;5108566;28;20023;-37
2021/05/17 08:36:43;;;;;;;5.13;2.45;;;14.90;99.40;;;;;;5103153;28;20054;-41
2021/05/17 08:39:09;;;;;;;4.55;2.35;;;15.10;99.20;;;;;;5089046;28;20024;-38
2021/05/17 08:41:39;;;;;;;4.00;2.20;;;15.20;99.20;;;;;;5095430;28;20036;-38
2021/05/17 08:44:05;;;;;;;4.80;2.40;;;15.40;99.00;;;;;;5094181;28;20043;-39
2021/05/17 08:46:31;;;;;;;3.88;1.88;;;15.50;98.80;;;;;;5101374;28;20110;-38
2021/05/17 08:48:57;;;;;;;2.25;1.60;;;15.40;98.10;;;;;;5108634;28;20099;-38
2021/05/17 08:51:26;;;;;;;2.65;1.98;;;15.20;98.10;;;;;;5103429;28;20413;-38
2021/05/17 08:53:53;;;;;;;2.15;1.52;;;15.00;98.50;;;;;;5102296;28;20077;-38
2021/05/17 08:56:20;;;;;;;1.98;1.33;;;14.80;99.00;;;;;;5106016;28;20016;-38
2021/05/17 08:58:59;;;;;;;3.45;1.95;;;14.70;99.30;;;;;;5096930;28;20027;-35
2021/05/17 09:01:24;;;;;;;4.43;2.40;;;14.80;99.90;;;;;;5102735;28;20036;-38
2021/05/17 09:04:04;;;;;;;4.47;2.03;;;14.90;99.70;;;;;;5098409;28;20121;-38
2021/05/17 09:06:44;;;;;;;3.75;1.70;;;15.00;99.50;;;;;;5105114;28;20489;-39
2021/05/17 09:09:40;;;;;;;2.42;1.90;;;15.10;99.50;;;;;;5097683;28;20450;-39
2021/05/17 09:12:09;;;;;;;3.17;2.20;;;15.20;99.30;;;;;;5103788;28;20028;-39
2021/05/17 09:14:36;;;;;;;3.67;2.00;;;15.20;99.20;;;;;;5095501;28;20031;-39
2021/05/17 09:17:07;;;;;;;4.30;2.50;;;15.30;99.30;;;;;;5089721;28;20044;-40
2021/05/17 09:19:34;;;;;;;3.58;2.40;;;15.30;98.90;;;;;;5097593;28;20736;-39
2021/05/17 09:22:18;;;;;;;4.63;2.50;;;15.40;99.00;;;;;;5088662;28;20777;-39
2021/05/17 09:24:49;;;;;;;4.10;2.80;;;15.40;98.80;;;;;;5097552;28;20054;-38
2021/05/17 09:27:29;;;;;;;3.47;2.58;;;15.50;98.60;;;;;;5104775;28;20023;-40
2021/05/17 09:30:01;;;;;;;5.75;2.90;;;15.60;98.00;;;;;;5101135;28;20487;-40
2021/05/17 09:32:28;;;;;;;5.57;2.88;;;15.70;98.10;;;;;;5105797;28;20482;-38
2021/05/17 09:35:05;;;;;;;5.07;2.72;;;15.70;97.70;;;;;;5096263;28;20023;-38
2021/05/17 09:37:57;;;;;;;3.28;2.30;;;15.70;97.70;;;;;;5104216;28;20103;-39
2021/05/17 09:40:27;;;;;;;3.28;2.50;;;15.70;97.60;;;;;;5098308;28;20031;-39
2021/05/17 09:43:02;;;;;;;2.92;2.53;;;15.70;97.70;;;;;;5102528;28;20048;-39
2021/05/17 09:45:35;;;;;;;3.17;2.35;;;15.70;97.30;;;;;;5096300;28;20031;-41
2021/05/17 09:48:07;;;;;;;3.88;2.63;;;15.80;97.40;;;;;;5088509;28;20148;-39
2021/05/17 09:50:56;;;;;;;4.10;3.05;;;15.90;97.40;;;;;;5100750;28;20382;-38
2021/05/17 09:53:45;;;;;;;5.68;3.60;;;16.00;96.80;;;;;;5103524;28;20032;-38
2021/05/17 09:56:18;;;;;;;4.30;3.22;;;15.90;97.00;;;;;;5106794;28;20099;-40
2021/05/17 09:58:49;;;;;;;4.50;2.80;;;15.80;97.40;;;;;;5102328;28;20016;-40
2021/05/17 10:01:24;;;;;;;4.25;2.78;;;15.60;97.60;;;;;;5099333;28;20091;-39
2021/05/17 10:03:53;;;;;;;5.47;2.88;;;15.40;98.00;;;;;;5102643;28;20416;-38
2021/05/17 10:06:21;;;;;;;5.30;2.67;;;15.40;98.30;;;;;;5099158;28;20054;-39
2021/05/17 10:08:47;;;;;;;5.60;2.22;;;15.40;98.40;;;;;;5103978;28;20119;-39
2021/05/17 10:11:13;;;;;;;3.92;2.67;;;15.40;98.40;;;;;;5091467;28;20158;-38
2021/05/17 10:13:39;;;;;;;3.45;3.15;;;15.40;98.30;;;;;;5088652;28;20034;-37
2021/05/17 10:16:08;;;;;;;4.97;2.88;;;15.40;98.30;;;;;;5094786;28;20016;-38
2021/05/17 10:18:35;;;;;;;2.85;2.60;;;15.40;98.30;;;;;;5104782;28;20043;-38
2021/05/17 10:21:03;;;;;;;3.95;2.95;;;15.50;98.50;;;;;;5104125;28;20826;-37
2021/05/17 10:23:30;;;;;;;4.63;2.58;;;15.50;98.40;;;;;;5095909;28;20085;-38
2021/05/17 10:26:16;;;;;;;3.35;2.65;;;15.70;98.20;;;;;;5093136;28;20407;-40
2021/05/17 10:28:47;;;;;;;2.67;2.33;;;16.00;97.80;;;;;;5105653;28;20032;-39
2021/05/17 10:31:18;;;;;;;2.13;1.90;;;16.20;97.50;;;;;;5104920;28;20027;-37
2021/05/17 10:34:01;;;;;;;3.95;1.95;;;16.40;97.20;;;;;;5103419;28;20059;-38
2021/05/17 10:37:16;;;;;;;3.95;2.20;;;16.60;96.30;;;;;;5105690;28;20019;-39
2021/05/17 10:39:47;;;;;;;3.22;2.15;;;16.70;96.00;;;;;;5021879;28;20026;-37
2021/05/17 10:42:37;;;;;;;2.47;1.88;;;16.80;95.70;;;;;;5021208;28;20049;-39
2021/05/17 10:48:24;;;;;;;3.70;2.27;;;16.40;96.00;;;;;;5106531;28;20477;-38
2021/05/17 10:50:50;;;;;;;3.15;1.88;;;16.10;96.70;;;;;;5097450;28;20028;-37
2021/05/17 10:53:49;;;;;;;4.28;2.03;;;15.80;97.30;;;;;;5102228;28;20582;-38
2021/05/17 10:56:38;;;;;;;2.78;1.92;;;15.40;97.80;;;;;;5061212;28;20047;-40
2021/05/17 11:01:58;;;;;;;2.33;1.70;;;15.10;98.60;;;;;;5101076;28;20654;-40
2021/05/17 11:04:54;;;;;;;1.75;1.50;;;15.10;98.80;;;;;;5088804;28;20035;-40
2021/05/17 11:07:24;;;;;;;1.60;1.40;;;15.20;98.90;;;;;;5104691;28;20069;-39
2021/05/17 11:10:08;;;;;;;1.60;1.50;;;15.50;98.80;;;;;;5088985;28;20514;-40
2021/05/17 11:12:37;;;;;;;2.35;1.70;;;15.80;98.60;;;;;;5105969;28;20303;-38
2021/05/17 11:15:13;;;;;;;3.00;1.92;;;16.00;98.40;;;;;;5090627;28;20035;-40
2021/05/17 11:18:01;;;;;;;6.03;3.08;;;16.20;98.00;;;;;;5101718;28;20024;-39
2021/05/17 11:23:15;;;;;;;4.00;1.92;;;16.30;97.50;;;;;;5106941;28;20122;-39
2021/05/17 11:25:50;;;;;;;2.22;1.90;;;16.40;97.40;;;;;;5108584;28;20047;-38
2021/05/17 11:28:17;;;;;;;2.30;2.08;;;16.40;97.40;;;;;;5106244;28;20046;-39
2021/05/17 11:30:46;;;;;;;1.92;1.40;;;16.30;97.20;;;;;;5109042;28;20465;-38
2021/05/17 11:33:20;;;;;;;1.45;1.27;;;16.30;97.20;;;;;;5096720;28;20027;-38
2021/05/17 11:36:17;;;;;;;1.67;1.45;;;16.40;97.20;;;;;;5107177;28;20038;-35
2021/05/17 11:39:21;;;;;;;3.78;1.45;;;16.60;96.00;;;;;;5082991;28;20449;-39
2021/05/17 11:42:01;;;;;;;3.08;1.50;;;16.80;96.30;;;;;;5105838;28;20578;-38
2021/05/17 11:44:32;;;;;;;1.40;1.30;;;16.80;96.10;;;;;;5106945;28;20062;-41
2021/05/17 11:47:02;;;;;;;2.42;1.80;;;17.00;96.20;;;;;;5108343;28;20321;-38
2021/05/17 11:49:31;;;;;;;3.22;2.15;;;17.10;95.70;;;;;;5107906;28;20648;-38
2021/05/17 11:51:58;;;;;;;2.10;1.60;;;17.10;95.20;;;;;;5104947;28;20431;-39
2021/05/17 11:54:32;;;;;;;2.25;2.00;;;17.20;95.50;;;;;;5107840;28;20055;-40
2021/05/17 11:57:00;;;;;;;3.78;2.20;;;17.30;95.50;;;;;;5107165;28;20027;-39
2021/05/17 11:59:26;;;;;;;2.53;2.30;;;17.40;95.50;;;;;;5098199;28;20012;-37
2021/05/17 12:02:04;;;;;;;2.45;2.00;;;17.60;95.40;;;;;;5108707;28;20031;-39
2021/05/17 12:04:35;;;;;;;2.35;1.83;;;17.80;95.10;;;;;;5097729;28;20026;-39
2021/05/17 12:07:06;;;;;;;2.38;2.17;;;18.00;94.80;;;;;;5108371;28;20488;-38
2021/05/17 12:09:32;;;;;;;3.30;3.00;;;18.20;93.90;;;;;;5103672;28;20032;-40
2021/05/17 12:12:06;;;;;;;3.30;3.00;;;18.40;92.90;;;;;;5088821;28;20036;-38
2021/05/17 12:14:32;;;;;;;3.85;2.60;;;18.40;92.90;;;;;;5100258;28;20418;-41
2021/05/17 12:17:00;;;;;;;2.78;2.38;;;18.40;93.00;;;;;;5088399;28;20089;-39
2021/05/17 12:19:26;;;;;;;2.42;2.22;;;18.40;92.90;;;;;;5100867;28;20398;-39
2021/05/17 12:21:56;;;;;;;2.85;2.00;;;18.20;92.60;;;;;;5087731;28;20052;-40
2021/05/17 12:24:27;;;;;;;2.55;2.03;;;18.00;92.60;;;;;;5099796;28;20023;-39
2021/05/17 12:26:59;;;;;;;2.65;1.77;;;17.70;92.90;;;;;;5088914;28;20093;-37
2021/05/17 12:29:28;;;;;;;3.23;2.83;;;17.60;92.60;;;;;;5098707;28;20020;-38
2021/05/17 12:32:06;;;;;;;2.65;2.30;;;17.60;92.50;;;;;;5102173;28;20309;-39
2021/05/17 12:34:32;;;;;;;4.15;2.88;;;17.60;92.20;;;;;;5095610;28;20027;-38
2021/05/17 12:36:58;;;;;;;2.80;2.50;;;17.50;91.60;;;;;;5105436;28;20418;-39
2021/05/17 12:39:24;;;;;;;2.80;2.60;;;17.30;91.90;;;;;;5101439;28;20340;-38
2021/05/17 12:41:53;;;;;;;2.60;2.40;;;17.20;91.60;;;;;;5102122;28;20086;-39
2021/05/17 12:44:36;;;;;;;3.22;2.90;;;17.10;91.80;;;;;;5106625;28;20023;-39
2021/05/17 12:47:10;;;;;;;3.00;2.75;;;17.00;92.00;;;;;;5108062;28;20028;-39
2021/05/17 12:49:50;;;;;;;3.85;3.53;;;16.80;92.40;;;;;;5103762;28;20030;-38
2021/05/17 12:52:33;;;;;;;4.32;3.92;;;16.80;92.90;;;;;;5096925;28;20036;-41
2021/05/17 12:55:14;;;;;;;6.68;5.97;;;16.50;93.20;;;;;;5099877;28;20023;-38
2021/05/17 12:57:55;;;;;;;5.50;5.00;;;16.30;93.90;;;;;;5105447;28;20037;-39
2021/05/17 13:00:39;;;;;;;5.35;4.35;;;16.10;94.20;;;;;;5107513;28;20545;-39
2021/05/17 13:03:10;;;;;;;4.15;3.63;;;16.10;94.70;;;;;;5088555;27;20044;-38
2021/05/17 13:06:01;;;;;;;3.20;2.90;;;16.10;94.70;;;;;;5091660;28;20050;-38
2021/05/17 13:08:46;;;;;;;3.78;2.22;;;15.90;93.90;;;;;;5087541;28;20494;-39
2021/05/17 13:11:14;;;;;;;2.42;2.20;;;15.80;94.30;;;;;;5103284;28;20039;-38
2021/05/17 13:13:47;;;;;;;2.65;1.90;;;15.90;94.40;;;;;;5107682;28;20042;-39
2021/05/17 13:16:28;;;;;;;3.05;1.83;;;16.00;94.60;;;;;;5095903;28;20046;-37
2021/05/17 13:19:03;;;;;;;2.65;1.70;;;16.00;94.20;;;;;;5087836;28;20020;-40
2021/05/17 13:21:44;;;;;;;3.55;1.83;;;16.10;93.80;;;;;;5099588;28;20518;-38
2021/05/17 13:32:33;;;;;;;2.40;1.92;;;16.10;93.00;;;;;;5095683;28;20598;-38
2021/05/17 13:34:59;;;;;;;1.80;1.60;;;16.10;93.00;;;;;;5105780;28;20107;-38
2021/05/17 13:37:25;;;;;;;1.67;1.58;;;16.10;93.30;;;;;;5099864;28;20031;-38
2021/05/17 13:39:50;;;;;;;2.50;2.30;;;16.10;93.40;;;;;;5106874;28;20797;-39
2021/05/17 13:42:17;;;;;;;2.40;2.20;;;16.10;92.30;;;;;;5101422;28;20063;-37